Time;durP1;ratioP1;P1;durP2;ratioP2;P2;SDS_P1;SDS_P2;PMS_P1;PMS_P2;Temp;Humidity;BMP_temperature;BMP_pressure;BME280_temperature;BME280_humidity;BME280_pressure;Samples;Min_cycle;Max_cycle;Signal;HPM_P1;HPM_P2
2023/08/17 00:00:19;;;;;;;;;;;16.30;99.90;;;;;;7327785;19;9455;-84
2023/08/17 00:02:51;;;;;;;;;;;16.30;99.90;;;;;;7327218;19;9136;-83
2023/08/17 00:05:20;;;;;;;;;;;16.20;99.90;;;;;;7326411;19;9255;-83
2023/08/17 00:07:49;;;;;;;;;;;16.20;99.90;;;;;;7327171;19;9188;-84
2023/08/17 00:10:18;;;;;;;;;;;16.20;99.90;;;;;;7327098;19;9733;-83
2023/08/17 00:12:47;;;;;;;;;;;16.10;99.90;;;;;;7326962;19;10735;-84
2023/08/17 00:15:16;;;;;;;;;;;16.20;99.90;;;;;;7326962;19;9176;-83
2023/08/17 00:17:45;;;;;;;;;;;16.20;99.90;;;;;;7326817;19;8944;-84
2023/08/17 00:20:18;;;;;;;;;;;16.20;99.90;;;;;;7327042;19;9188;-84
2023/08/17 00:22:47;;;;;;;;;;;16.20;99.90;;;;;;7326889;19;9301;-84
2023/08/17 00:25:17;;;;;;;;;;;16.20;99.90;;;;;;7326129;19;9537;-83
2023/08/17 00:27:45;;;;;;;;;;;16.20;99.90;;;;;;7326227;19;9172;-83
2023/08/17 00:30:16;;;;;;;;;;;16.20;99.90;;;;;;7326360;19;9258;-83
2023/08/17 00:32:44;;;;;;;;;;;16.20;99.90;;;;;;7326039;19;9157;-83
2023/08/17 00:35:17;;;;;;;;;;;16.20;99.90;;;;;;7326510;19;9425;-83
2023/08/17 00:37:46;;;;;;;;;;;16.20;99.90;;;;;;7325807;19;10679;-83
2023/08/17 00:40:15;;;;;;;;;;;16.20;99.90;;;;;;7324867;19;9169;-84
2023/08/17 00:42:44;;;;;;;;;;;16.20;99.90;;;;;;7325206;19;9234;-84
2023/08/17 00:45:13;;;;;;;;;;;16.10;99.90;;;;;;7325390;19;9185;-83
2023/08/17 00:47:42;;;;;;;;;;;16.10;99.90;;;;;;7325861;19;9182;-83
2023/08/17 00:50:14;;;;;;;;;;;16.10;99.90;;;;;;7325823;19;9292;-84
2023/08/17 00:52:46;;;;;;;;;;;16.10;99.90;;;;;;7325701;19;10323;-83
2023/08/17 00:55:15;;;;;;;;;;;16.10;99.90;;;;;;7325636;19;11229;-84
2023/08/17 00:57:44;;;;;;;;;;;16.10;99.90;;;;;;7325668;19;9163;-84
2023/08/17 01:00:16;;;;;;;;;;;16.10;99.90;;;;;;7327216;19;9371;-83
2023/08/17 01:02:45;;;;;;;;;;;16.10;99.90;;;;;;7326576;19;9212;-83
2023/08/17 01:05:15;;;;;;;;;;;16.10;99.90;;;;;;7324887;19;9456;-83
2023/08/17 01:07:46;;;;;;;;;;;16.10;99.90;;;;;;7324960;19;9121;-83
2023/08/17 01:10:15;;;;;;;;;;;16.10;99.90;;;;;;7325035;19;9162;-84
2023/08/17 01:12:51;;;;;;;;;;;16.00;99.90;;;;;;7324927;19;9210;-83
2023/08/17 01:15:27;;;;;;;;;;;16.10;99.90;;;;;;7323569;19;9465;-84
2023/08/17 01:18:03;;;;;;;;;;;16.10;99.90;;;;;;7324751;19;9215;-84
2023/08/17 01:20:34;;;;;;;;;;;16.10;99.90;;;;;;7324755;19;9181;-84
2023/08/17 01:23:09;;;;;;;;;;;16.10;99.90;;;;;;7324854;19;9249;-83
2023/08/17 01:25:38;;;;;;;;;;;16.00;99.90;;;;;;7323880;19;9677;-83
2023/08/17 01:28:08;;;;;;;;;;;16.10;99.90;;;;;;7324342;19;9174;-83
2023/08/17 01:30:47;;;;;;;;;;;16.10;99.90;;;;;;7324654;19;8997;-83
2023/08/17 01:33:23;;;;;;;;;;;16.10;99.90;;;;;;7324290;19;9171;-84
2023/08/17 01:36:07;;;;;;;;;;;16.00;99.90;;;;;;7324271;19;9154;-83
2023/08/17 01:38:39;;;;;;;;;;;16.10;99.90;;;;;;7324081;19;10210;-84
2023/08/17 01:41:12;;;;;;;;;;;16.00;99.90;;;;;;7322278;19;9213;-84
2023/08/17 01:43:45;;;;;;;;;;;16.10;99.90;;;;;;7322820;19;9213;-83
2023/08/17 01:46:17;;;;;;;;;;;16.10;99.90;;;;;;7322925;19;9214;-84
2023/08/17 01:48:47;;;;;;;;;;;16.10;99.90;;;;;;7323603;19;9301;-83
2023/08/17 01:51:21;;;;;;;;;;;16.10;99.90;;;;;;7323660;19;10809;-84
2023/08/17 01:53:52;;;;;;;;;;;16.20;99.90;;;;;;7323732;19;9236;-84
2023/08/17 01:56:21;;;;;;;;;;;16.20;99.90;;;;;;7323855;19;9498;-83
2023/08/17 01:58:50;;;;;;;;;;;16.20;99.90;;;;;;7324276;19;9235;-83
2023/08/17 02:01:19;;;;;;;;;;;16.20;99.90;;;;;;7327592;19;9186;-83
2023/08/17 02:03:48;;;;;;;;;;;16.20;99.90;;;;;;7323324;19;10330;-84
2023/08/17 02:06:17;;;;;;;;;;;16.30;99.90;;;;;;7322674;19;9185;-84
2023/08/17 02:08:48;;;;;;;;;;;16.30;99.90;;;;;;7323696;19;10205;-84
2023/08/17 02:11:19;;;;;;;;;;;16.30;99.90;;;;;;7323720;19;9196;-84
2023/08/17 02:13:48;;;;;;;;;;;16.30;99.90;;;;;;7323487;19;9354;-83
2023/08/17 02:16:17;;;;;;;;;;;16.40;99.90;;;;;;7323016;19;10390;-83
2023/08/17 02:18:46;;;;;;;;;;;16.40;99.90;;;;;;7323166;19;9059;-83
2023/08/17 02:21:15;;;;;;;;;;;16.40;99.90;;;;;;7322999;19;9201;-83
2023/08/17 02:23:44;;;;;;;;;;;16.40;99.90;;;;;;7322788;19;10392;-83
2023/08/17 02:26:13;;;;;;;;;;;16.40;99.90;;;;;;7319260;19;9312;-83
2023/08/17 02:28:45;;;;;;;;;;;16.40;99.90;;;;;;7322691;19;9204;-83
2023/08/17 02:31:14;;;;;;;;;;;16.30;99.90;;;;;;7323137;19;9477;-83
2023/08/17 02:33:43;;;;;;;;;;;16.30;99.90;;;;;;7322776;19;9318;-83
2023/08/17 02:36:12;;;;;;;;;;;16.30;99.90;;;;;;7322678;19;9458;-84
2023/08/17 02:38:41;;;;;;;;;;;16.40;99.90;;;;;;7322558;19;9494;-84
2023/08/17 02:41:10;;;;;;;;;;;16.40;99.90;;;;;;7321653;19;9172;-83
2023/08/17 02:43:39;;;;;;;;;;;16.40;99.90;;;;;;7321260;19;9367;-84
2023/08/17 02:46:11;;;;;;;;;;;16.40;99.90;;;;;;7321959;19;10267;-83
2023/08/17 02:48:40;;;;;;;;;;;16.40;99.90;;;;;;7322474;19;9177;-83
2023/08/17 02:51:09;;;;;;;;;;;16.30;99.90;;;;;;7321758;19;10653;-83
2023/08/17 02:53:38;;;;;;;;;;;16.30;99.90;;;;;;7321801;19;9184;-83
2023/08/17 02:56:07;;;;;;;;;;;16.30;99.90;;;;;;7322291;19;9529;-83
2023/08/17 02:58:36;;;;;;;;;;;16.30;99.90;;;;;;7322081;19;9255;-84
2023/08/17 03:01:06;;;;;;;;;;;16.30;99.90;;;;;;7325546;19;9497;-84
2023/08/17 03:03:37;;;;;;;;;;;16.30;99.90;;;;;;7321827;19;9216;-83
2023/08/17 03:06:07;;;;;;;;;;;16.30;99.90;;;;;;7321425;19;9170;-83
2023/08/17 03:08:36;;;;;;;;;;;16.30;99.90;;;;;;7322888;19;9200;-83
2023/08/17 03:11:07;;;;;;;;;;;16.30;99.90;;;;;;7321999;19;9214;-83
2023/08/17 03:13:36;;;;;;;;;;;16.20;99.90;;;;;;7321871;19;9735;-83
2023/08/17 03:16:06;;;;;;;;;;;16.20;99.90;;;;;;7321838;19;9278;-84
2023/08/17 03:18:38;;;;;;;;;;;16.20;99.90;;;;;;7321278;19;9197;-84
2023/08/17 03:21:07;;;;;;;;;;;16.20;99.90;;;;;;7321605;19;9170;-83
2023/08/17 03:23:36;;;;;;;;;;;16.10;99.90;;;;;;7320995;19;9458;-84
2023/08/17 03:26:05;;;;;;;;;;;16.10;99.90;;;;;;7320735;19;9181;-83
2023/08/17 03:28:35;;;;;;;;;;;16.00;99.90;;;;;;7320921;19;9190;-83
2023/08/17 03:31:05;;;;;;;;;;;16.00;99.90;;;;;;7321351;19;9177;-83
2023/08/17 03:33:35;;;;;;;;;;;16.00;99.90;;;;;;7321097;19;9170;-83
2023/08/17 03:36:07;;;;;;;;;;;16.10;99.90;;;;;;7321103;19;9219;-83
2023/08/17 03:38:38;;;;;;;;;;;16.00;99.90;;;;;;7324777;19;9101;-83
2023/08/17 03:41:07;;;;;;;;;;;16.00;99.90;;;;;;7325937;19;9201;-83
2023/08/17 03:43:37;;;;;;;;;;;16.00;99.90;;;;;;7326060;19;9297;-83
2023/08/17 03:46:07;;;;;;;;;;;16.00;99.90;;;;;;7327463;19;9178;-83
2023/08/17 03:48:36;;;;;;;;;;;16.00;99.90;;;;;;7327837;19;9579;-83
2023/08/17 03:51:07;;;;;;;;;;;16.00;99.90;;;;;;7327442;19;9791;-82
2023/08/17 03:53:36;;;;;;;;;;;16.00;99.90;;;;;;7327886;19;9221;-83
2023/08/17 03:56:06;;;;;;;;;;;16.00;99.90;;;;;;7327500;19;9185;-84
2023/08/17 03:58:35;;;;;;;;;;;16.10;99.90;;;;;;7327533;19;9352;-84
2023/08/17 04:01:06;;;;;;;;;;;16.10;99.90;;;;;;7331089;19;9530;-83
2023/08/17 04:03:35;;;;;;;;;;;16.10;99.90;;;;;;7327619;19;9337;-83
2023/08/17 04:06:10;;;;;;;;;;;16.20;99.90;;;;;;7326935;19;10149;-84
2023/08/17 04:08:40;;;;;;;;;;;16.10;99.90;;;;;;7327033;19;9057;-83
2023/08/17 04:11:09;;;;;;;;;;;16.10;99.90;;;;;;7327316;19;10345;-83
2023/08/17 04:13:37;;;;;;;;;;;16.00;99.90;;;;;;7326912;19;9266;-83
2023/08/17 04:16:07;;;;;;;;;;;16.00;99.90;;;;;;7326924;19;9471;-83
2023/08/17 04:18:36;;;;;;;;;;;15.90;99.90;;;;;;7327161;19;9244;-83
2023/08/17 04:21:05;;;;;;;;;;;16.00;99.90;;;;;;7326716;19;9220;-84
2023/08/17 04:23:36;;;;;;;;;;;15.90;99.90;;;;;;7326564;19;9023;-83
2023/08/17 04:26:06;;;;;;;;;;;16.00;99.90;;;;;;7326591;19;9186;-83
2023/08/17 04:28:35;;;;;;;;;;;16.00;99.90;;;;;;7326547;19;9203;-83
2023/08/17 04:31:04;;;;;;;;;;;16.00;99.90;;;;;;7326270;19;9464;-83
2023/08/17 04:33:33;;;;;;;;;;;16.00;99.90;;;;;;7326368;19;9318;-83
2023/08/17 04:36:02;;;;;;;;;;;16.00;99.90;;;;;;7326451;19;10250;-83
2023/08/17 04:38:31;;;;;;;;;;;16.00;99.90;;;;;;7326491;19;9145;-83
2023/08/17 04:41:03;;;;;;;;;;;16.00;99.90;;;;;;7324455;19;9201;-84
2023/08/17 04:43:32;;;;;;;;;;;16.00;99.90;;;;;;7324906;19;9173;-83
2023/08/17 04:46:01;;;;;;;;;;;16.00;99.90;;;;;;7325890;19;9345;-84
2023/08/17 04:48:30;;;;;;;;;;;16.00;99.90;;;;;;7323525;19;10149;-83
2023/08/17 04:50:59;;;;;;;;;;;16.00;99.90;;;;;;7323713;19;9253;-83
2023/08/17 04:53:28;;;;;;;;;;;16.00;99.90;;;;;;7325996;19;9221;-83
2023/08/17 04:55:57;;;;;;;;;;;15.90;99.90;;;;;;7325934;19;9248;-83
2023/08/17 04:58:29;;;;;;;;;;;15.90;99.90;;;;;;7325681;19;10459;-83
2023/08/17 05:00:58;;;;;;;;;;;15.90;99.90;;;;;;7329161;19;9477;-84
2023/08/17 05:03:27;;;;;;;;;;;15.80;99.90;;;;;;7325301;19;9181;-83
2023/08/17 05:05:56;;;;;;;;;;;15.80;99.90;;;;;;7325167;19;9182;-84
2023/08/17 05:08:25;;;;;;;;;;;15.80;99.90;;;;;;7323445;19;9314;-83
2023/08/17 05:10:53;;;;;;;;;;;15.80;99.90;;;;;;7325257;19;9308;-83
2023/08/17 05:13:23;;;;;;;;;;;15.70;99.90;;;;;;7325311;19;9266;-84
2023/08/17 05:15:54;;;;;;;;;;;15.70;99.90;;;;;;7325668;19;9062;-83
2023/08/17 05:18:23;;;;;;;;;;;15.70;99.90;;;;;;7326057;19;9278;-83
2023/08/17 05:20:52;;;;;;;;;;;15.60;99.90;;;;;;7326052;19;9275;-84
2023/08/17 05:23:21;;;;;;;;;;;15.60;99.90;;;;;;7325465;19;9336;-84
2023/08/17 05:25:51;;;;;;;;;;;15.60;99.90;;;;;;7324738;19;10362;-83
2023/08/17 05:28:20;;;;;;;;;;;15.60;99.90;;;;;;7323693;19;9166;-83
2023/08/17 05:30:49;;;;;;;;;;;15.60;99.90;;;;;;7324883;19;9127;-83
2023/08/17 05:33:20;;;;;;;;;;;15.60;99.90;;;;;;7325101;19;9209;-83
2023/08/17 05:35:55;;;;;;;;;;;15.60;99.90;;;;;;7324580;19;8944;-83
2023/08/17 05:38:24;;;;;;;;;;;15.70;99.90;;;;;;7324196;19;9347;-83
2023/08/17 05:40:57;;;;;;;;;;;15.70;99.90;;;;;;7322683;19;9570;-83
2023/08/17 05:43:28;;;;;;;;;;;15.80;99.90;;;;;;7322687;19;9343;-83
2023/08/17 05:45:59;;;;;;;;;;;15.80;99.90;;;;;;7324028;19;9255;-83
2023/08/17 05:48:30;;;;;;;;;;;15.80;99.90;;;;;;7322846;19;9333;-84
2023/08/17 05:50:59;;;;;;;;;;;15.80;99.90;;;;;;7323404;19;10767;-83
2023/08/17 05:53:28;;;;;;;;;;;15.70;99.90;;;;;;7323955;19;9228;-84
2023/08/17 05:55:57;;;;;;;;;;;15.80;99.90;;;;;;7323720;19;10447;-84
2023/08/17 05:58:26;;;;;;;;;;;15.80;99.90;;;;;;7323629;19;9229;-83
2023/08/17 06:00:55;;;;;;;;;;;15.80;99.90;;;;;;7327459;19;9450;-83
2023/08/17 06:03:24;;;;;;;;;;;15.90;99.90;;;;;;7323364;19;9608;-84
2023/08/17 06:05:58;;;;;;;;;;;15.90;99.90;;;;;;7323403;19;9145;-83
2023/08/17 06:08:27;;;;;;;;;;;16.00;99.90;;;;;;7322361;19;9225;-83
2023/08/17 06:10:56;;;;;;;;;;;16.00;99.90;;;;;;7323408;19;9185;-83
2023/08/17 06:13:25;;;;;;;;;;;16.10;99.90;;;;;;7324039;19;9470;-83
2023/08/17 06:15:54;;;;;;;;;;;16.10;99.90;;;;;;7323133;19;10224;-84
2023/08/17 06:18:23;;;;;;;;;;;16.30;99.90;;;;;;7323217;19;9169;-83
2023/08/17 06:20:53;;;;;;;;;;;16.30;99.90;;;;;;7323137;19;9242;-83
2023/08/17 06:23:25;;;;;;;;;;;16.30;99.90;;;;;;7322854;19;10670;-84
2023/08/17 06:25:54;;;;;;;;;;;16.40;99.90;;;;;;7322884;19;9185;-83
2023/08/17 06:28:23;;;;;;;;;;;16.50;99.90;;;;;;7321274;19;9178;-84
2023/08/17 06:30:55;;;;;;;;;;;16.50;99.90;;;;;;7322449;19;9597;-83
2023/08/17 06:33:24;;;;;;;;;;;16.50;99.90;;;;;;7322508;19;10515;-83
2023/08/17 06:35:53;;;;;;;;;;;16.60;99.90;;;;;;7322542;19;9165;-84
2023/08/17 06:38:24;;;;;;;;;;;16.50;99.90;;;;;;7322326;19;9449;-83
2023/08/17 06:40:54;;;;;;;;;;;16.60;99.90;;;;;;7320795;19;9177;-83
2023/08/17 06:43:23;;;;;;;;;;;16.60;99.90;;;;;;7321267;19;9205;-82
2023/08/17 06:45:53;;;;;;;;;;;16.60;99.90;;;;;;7322546;19;9213;-84
2023/08/17 06:48:22;;;;;;;;;;;16.70;99.90;;;;;;7321028;19;9242;-83
2023/08/17 06:50:51;;;;;;;;;;;16.70;99.90;;;;;;7322326;19;9023;-83
2023/08/17 06:53:20;;;;;;;;;;;16.70;99.90;;;;;;7321977;19;9260;-83
2023/08/17 06:55:52;;;;;;;;;;;16.70;99.90;;;;;;7322312;19;9194;-83
2023/08/17 06:58:21;;;;;;;;;;;16.80;99.90;;;;;;7322066;19;9234;-84
2023/08/17 07:00:50;;;;;;;;;;;16.70;99.90;;;;;;7326487;19;9185;-83
2023/08/17 07:03:20;;;;;;;;;;;16.80;99.90;;;;;;7322131;19;9320;-83
2023/08/17 07:05:49;;;;;;;;;;;16.80;99.90;;;;;;7321669;19;9227;-84
2023/08/17 07:08:18;;;;;;;;;;;16.90;99.90;;;;;;7320502;19;9085;-83
2023/08/17 07:10:47;;;;;;;;;;;16.90;99.90;;;;;;7321691;19;9184;-84
2023/08/17 07:13:18;;;;;;;;;;;16.90;99.90;;;;;;7324617;19;9237;-83
2023/08/17 07:15:47;;;;;;;;;;;16.90;99.90;;;;;;7329339;19;9173;-84
2023/08/17 07:18:16;;;;;;;;;;;16.90;99.90;;;;;;7328714;19;9252;-83
2023/08/17 07:20:45;;;;;;;;;;;16.90;99.90;;;;;;7328866;19;9465;-83
2023/08/17 07:23:14;;;;;;;;;;;16.90;99.90;;;;;;7329229;19;9170;-83
2023/08/17 07:25:44;;;;;;;;;;;16.90;99.90;;;;;;7328955;19;9197;-83
2023/08/17 07:28:14;;;;;;;;;;;17.00;99.90;;;;;;7328178;19;9198;-83
2023/08/17 07:30:46;;;;;;;;;;;17.00;99.90;;;;;;7329786;19;8945;-84
2023/08/17 07:33:15;;;;;;;;;;;17.00;99.90;;;;;;7329183;19;9186;-84
2023/08/17 07:35:44;;;;;;;;;;;17.00;99.90;;;;;;7328745;19;9135;-84
2023/08/17 07:38:13;;;;;;;;;;;17.10;99.90;;;;;;7328363;19;9184;-84
2023/08/17 07:40:43;;;;;;;;;;;17.10;99.90;;;;;;7326337;19;9201;-84
2023/08/17 07:43:12;;;;;;;;;;;17.10;99.90;;;;;;7326634;19;9469;-84
2023/08/17 07:45:41;;;;;;;;;;;17.10;99.90;;;;;;7327820;19;9489;-83
2023/08/17 07:48:13;;;;;;;;;;;17.20;99.90;;;;;;7326740;19;10394;-83
2023/08/17 07:50:42;;;;;;;;;;;17.20;99.90;;;;;;7327973;19;9546;-85
2023/08/17 07:53:12;;;;;;;;;;;17.20;99.90;;;;;;7327666;19;9262;-83
2023/08/17 07:55:41;;;;;;;;;;;17.20;99.90;;;;;;7327577;19;9201;-83
2023/08/17 07:58:10;;;;;;;;;;;17.20;99.90;;;;;;7327458;19;9128;-83
2023/08/17 08:00:39;;;;;;;;;;;17.20;99.90;;;;;;7331897;19;9313;-84
2023/08/17 08:03:08;;;;;;;;;;;17.30;99.90;;;;;;7327735;19;8945;-84
2023/08/17 08:05:39;;;;;;;;;;;17.30;99.90;;;;;;7327239;19;9194;-83
2023/08/17 08:08:08;;;;;;;;;;;17.30;99.90;;;;;;7326665;19;9186;-84
2023/08/17 08:10:37;;;;;;;;;;;17.40;99.90;;;;;;7327706;19;9181;-84
2023/08/17 08:13:07;;;;;;;;;;;17.50;99.90;;;;;;7327092;19;9145;-84
2023/08/17 08:15:37;;;;;;;;;;;17.60;99.90;;;;;;7326815;19;9126;-84
2023/08/17 08:18:06;;;;;;;;;;;17.70;99.90;;;;;;7327162;19;9216;-84
2023/08/17 08:20:35;;;;;;;;;;;17.80;99.90;;;;;;7326703;19;9588;-83
2023/08/17 08:23:07;;;;;;;;;;;17.90;99.90;;;;;;7326672;19;9277;-84
2023/08/17 08:25:36;;;;;;;;;;;18.00;99.90;;;;;;7326787;19;9461;-83
2023/08/17 08:28:05;;;;;;;;;;;18.10;99.90;;;;;;7324566;19;9177;-84
2023/08/17 08:30:34;;;;;;;;;;;18.10;99.90;;;;;;7326466;19;9161;-84
2023/08/17 08:33:05;;;;;;;;;;;18.10;99.90;;;;;;7326760;19;9197;-83
2023/08/17 08:35:34;;;;;;;;;;;18.10;99.90;;;;;;7326439;19;9302;-84
2023/08/17 08:38:06;;;;;;;;;;;18.10;99.90;;;;;;7326194;19;9506;-83
2023/08/17 08:40:37;;;;;;;;;;;18.10;99.90;;;;;;7324820;19;9217;-83
2023/08/17 08:43:09;;;;;;;;;;;18.10;99.90;;;;;;7325347;19;9476;-84
2023/08/17 08:45:41;;;;;;;;;;;18.00;99.90;;;;;;7326083;19;9472;-83
2023/08/17 08:48:11;;;;;;;;;;;18.00;99.90;;;;;;7325722;19;9268;-84
2023/08/17 08:50:43;;;;;;;;;;;17.90;99.90;;;;;;7325946;19;9158;-84
2023/08/17 08:53:17;;;;;;;;;;;18.00;99.90;;;;;;7326305;19;9193;-83
2023/08/17 08:55:56;;;;;;;;;;;17.90;99.90;;;;;;7326203;19;9207;-83
2023/08/17 08:58:27;;;;;;;;;;;17.90;99.90;;;;;;7325629;19;9220;-83
2023/08/17 09:00:57;;;;;;;;;;;17.90;99.90;;;;;;7325826;19;9171;-83
2023/08/17 09:03:28;;;;;;;;;;;17.90;99.90;;;;;;7325520;19;9210;-85
2023/08/17 09:06:00;;;;;;;;;;;17.90;99.90;;;;;;7325504;19;9034;-83
2023/08/17 09:08:33;;;;;;;;;;;18.00;99.90;;;;;;7325087;19;9464;-83
2023/08/17 09:11:03;;;;;;;;;;;18.10;99.90;;;;;;7325670;19;9559;-83
2023/08/17 09:13:32;;;;;;;;;;;18.10;99.90;;;;;;7325331;19;9160;-84
2023/08/17 09:16:02;;;;;;;;;;;18.20;99.90;;;;;;7325344;19;9233;-83
2023/08/17 09:18:31;;;;;;;;;;;18.30;99.90;;;;;;7324975;19;9304;-83
2023/08/17 09:21:00;;;;;;;;;;;18.40;99.90;;;;;;7324934;19;9237;-84
2023/08/17 09:23:32;;;;;;;;;;;18.60;99.90;;;;;;7324773;19;9512;-84
2023/08/17 09:26:11;;;;;;;;;;;18.70;99.90;;;;;;7323038;19;9453;-84
2023/08/17 09:28:42;;;;;;;;;;;18.80;99.90;;;;;;7323898;19;9507;-84
2023/08/17 09:31:11;;;;;;;;;;;18.90;99.90;;;;;;7324512;19;9182;-84
2023/08/17 09:33:40;;;;;;;;;;;19.00;99.90;;;;;;7324903;19;9616;-83
2023/08/17 09:36:12;;;;;;;;;;;19.10;99.90;;;;;;7323867;19;9548;-84
2023/08/17 09:38:44;;;;;;;;;;;19.10;99.90;;;;;;7325093;19;9266;-84
2023/08/17 09:41:13;;;;;;;;;;;19.20;99.90;;;;;;7322806;19;9296;-84
2023/08/17 09:43:43;;;;;;;;;;;19.30;99.90;;;;;;7323265;19;9220;-83
2023/08/17 09:46:12;;;;;;;;;;;19.30;99.90;;;;;;7324542;19;9449;-83
2023/08/17 09:48:42;;;;;;;;;;;19.30;99.90;;;;;;7323777;19;9225;-84
2023/08/17 09:51:11;;;;;;;;;;;19.30;99.90;;;;;;7324353;19;9205;-84
2023/08/17 09:53:43;;;;;;;;;;;19.30;99.90;;;;;;7323931;19;9204;-83
2023/08/17 09:56:12;;;;;;;;;;;19.30;99.90;;;;;;7323912;19;9157;-84
2023/08/17 09:58:42;;;;;;;;;;;19.30;99.90;;;;;;7324823;19;9209;-84
2023/08/17 10:01:13;;;;;;;;;;;19.30;99.90;;;;;;7323656;19;9551;-84
2023/08/17 10:03:46;;;;;;;;;;;19.40;99.90;;;;;;7323533;19;9172;-84
2023/08/17 10:06:17;;;;;;;;;;;19.50;99.90;;;;;;7323498;19;9216;-84
2023/08/17 10:08:51;;;;;;;;;;;19.60;99.90;;;;;;7322660;19;9173;-84
2023/08/17 10:11:24;;;;;;;;;;;19.70;99.90;;;;;;7323456;19;9265;-84
2023/08/17 10:13:57;;;;;;;;;;;19.80;99.90;;;;;;7323394;19;9521;-84
2023/08/17 10:16:29;;;;;;;;;;;19.70;99.90;;;;;;7323508;19;9444;-84
2023/08/17 10:19:07;;;;;;;;;;;19.80;99.90;;;;;;7323669;19;9624;-83
2023/08/17 10:21:45;;;;;;;;;;;19.70;99.90;;;;;;7322890;19;9182;-83
2023/08/17 10:24:19;;;;;;;;;;;19.70;99.90;;;;;;7323194;19;9151;-83
2023/08/17 10:26:48;;;;;;;;;;;19.90;99.90;;;;;;7322586;19;9222;-84
2023/08/17 10:29:19;;;;;;;;;;;20.10;99.90;;;;;;7321818;19;9453;-84
2023/08/17 10:31:48;;;;;;;;;;;20.10;99.90;;;;;;7322778;19;9636;-84
2023/08/17 10:34:18;;;;;;;;;;;20.10;99.90;;;;;;7322497;19;9138;-83
2023/08/17 10:36:48;;;;;;;;;;;20.10;99.90;;;;;;7322702;19;10662;-84
2023/08/17 10:39:25;;;;;;;;;;;20.00;99.90;;;;;;7322154;19;9224;-83
2023/08/17 10:41:55;;;;;;;;;;;20.00;99.90;;;;;;7322696;19;9244;-84
2023/08/17 10:44:42;;;;;;;;;;;20.00;99.90;;;;;;7320707;19;9203;-84
2023/08/17 10:47:28;;;;;;;;;;;20.00;99.90;;;;;;7322077;19;9466;-84
2023/08/17 10:50:00;;;;;;;;;;;20.00;99.90;;;;;;7327482;19;9512;-84
2023/08/17 10:52:34;;;;;;;;;;;20.00;99.90;;;;;;7329668;19;9127;-84
2023/08/17 10:55:09;;;;;;;;;;;20.20;99.90;;;;;;7329601;19;10198;-84
2023/08/17 10:57:40;;;;;;;;;;;20.30;99.90;;;;;;7329820;19;9478;-84
2023/08/17 11:00:26;;;;;;;;;;;20.50;99.90;;;;;;7333724;19;9233;-83
2023/08/17 11:02:58;;;;;;;;;;;20.70;99.90;;;;;;7330002;19;9205;-84
2023/08/17 11:05:42;;;;;;;;;;;20.90;99.90;;;;;;7329678;19;9217;-84
2023/08/17 11:08:15;;;;;;;;;;;20.80;99.90;;;;;;7329450;19;9174;-84
2023/08/17 11:10:51;;;;;;;;;;;20.80;99.90;;;;;;7326480;19;9190;-84
2023/08/17 11:13:20;;;;;;;;;;;20.70;99.90;;;;;;7329305;19;9474;-84
2023/08/17 11:15:49;;;;;;;;;;;20.60;99.90;;;;;;7329155;19;9185;-84
2023/08/17 11:18:18;;;;;;;;;;;20.50;99.90;;;;;;7329133;19;9183;-84
2023/08/17 11:20:48;;;;;;;;;;;20.40;99.90;;;;;;7329263;19;10222;-84
2023/08/17 11:23:17;;;;;;;;;;;20.50;99.90;;;;;;7329469;19;9173;-84
2023/08/17 11:25:51;;;;;;;;;;;20.50;99.90;;;;;;7327376;19;10641;-83
2023/08/17 11:28:20;;;;;;;;;;;20.40;99.90;;;;;;7328848;19;9185;-84
2023/08/17 11:30:59;;;;;;;;;;;20.50;99.90;;;;;;7325994;19;9445;-84
2023/08/17 11:33:28;;;;;;;;;;;20.60;99.90;;;;;;7329289;19;9480;-84
2023/08/17 11:35:57;;;;;;;;;;;20.60;99.90;;;;;;7328778;19;9071;-84
2023/08/17 11:38:27;;;;;;;;;;;20.60;99.90;;;;;;7327453;19;9213;-84
2023/08/17 11:41:01;;;;;;;;;;;20.60;99.90;;;;;;7326876;19;9263;-85
2023/08/17 11:43:31;;;;;;;;;;;20.70;99.90;;;;;;7327046;19;9170;-84
2023/08/17 11:46:02;;;;;;;;;;;20.70;99.90;;;;;;7327825;19;9233;-84
2023/08/17 11:48:31;;;;;;;;;;;20.80;99.90;;;;;;7326698;19;9181;-84
2023/08/17 11:51:01;;;;;;;;;;;21.00;99.90;;;;;;7323565;19;9118;-84
2023/08/17 11:53:38;;;;;;;;;;;21.20;99.90;;;;;;7324625;19;11999;-84
2023/08/17 11:56:10;;;;;;;;;;;21.30;99.90;;;;;;7326175;19;9185;-84
2023/08/17 11:58:43;;;;;;;;;;;21.30;99.90;;;;;;7326510;19;9264;-85
2023/08/17 12:01:15;;;;;;;;;;;21.30;99.90;;;;;;7325418;19;9233;-84
2023/08/17 12:03:45;;;;;;;;;;;21.20;99.90;;;;;;7325682;19;10213;-84
2023/08/17 12:06:14;;;;;;;;;;;21.20;99.90;;;;;;7325259;19;9190;-83
2023/08/17 12:08:45;;;;;;;;;;;21.20;99.90;;;;;;7325061;19;9525;-84
2023/08/17 12:11:18;;;;;;;;;;;21.30;99.90;;;;;;7325209;19;8945;-84
2023/08/17 12:13:52;;;;;;;;;;;21.30;99.90;;;;;;7324755;19;9338;-83
2023/08/17 12:16:23;;;;;;;;;;;21.30;99.90;;;;;;7324784;19;9473;-84
2023/08/17 12:18:52;;;;;;;;;;;21.20;99.90;;;;;;7324859;19;9275;-83
2023/08/17 12:21:23;;;;;;;;;;;21.10;99.90;;;;;;7324735;19;9205;-84
2023/08/17 12:23:52;;;;;;;;;;;21.10;99.90;;;;;;7324931;19;8992;-84
2023/08/17 12:26:25;;;;;;;;;;;20.90;99.90;;;;;;7324522;19;9322;-84
2023/08/17 12:28:54;;;;;;;;;;;20.90;99.90;;;;;;7322591;19;9266;-84
2023/08/17 12:31:28;;;;;;;;;;;20.90;99.90;;;;;;7324447;19;9223;-84
2023/08/17 12:33:57;;;;;;;;;;;20.80;99.90;;;;;;7324586;19;9181;-84
2023/08/17 12:36:26;;;;;;;;;;;20.80;99.90;;;;;;7324607;19;9517;-84
2023/08/17 12:38:55;;;;;;;;;;;20.70;99.90;;;;;;7324400;19;9189;-84
2023/08/17 12:41:27;;;;;;;;;;;20.70;99.90;;;;;;7324208;19;9126;-84
2023/08/17 12:43:58;;;;;;;;;;;20.60;99.90;;;;;;7182696;19;2792365;-84
2023/08/17 12:46:27;;;;;;;;;;;20.60;99.90;;;;;;7326188;19;9463;-84
2023/08/17 12:48:56;;;;;;;;;;;20.60;99.90;;;;;;7325836;19;9572;-84
2023/08/17 12:51:26;;;;;;;;;;;20.60;99.90;;;;;;7324110;19;9255;-83
2023/08/17 12:53:55;;;;;;;;;;;20.60;99.90;;;;;;7325835;19;9180;-84
2023/08/17 12:56:27;;;;;;;;;;;20.50;99.90;;;;;;7325855;19;10426;-84
2023/08/17 12:58:56;;;;;;;;;;;20.40;99.90;;;;;;7327645;19;9115;-84
2023/08/17 13:01:24;;;;;;;;;;;20.40;99.90;;;;;;7325808;19;9165;-84
2023/08/17 13:03:54;;;;;;;;;;;20.40;99.90;;;;;;7325623;19;9464;-84
2023/08/17 13:06:23;;;;;;;;;;;20.40;99.90;;;;;;7325045;19;9544;-84
2023/08/17 13:08:52;;;;;;;;;;;20.40;99.90;;;;;;7325190;19;10366;-84
2023/08/17 13:11:21;;;;;;;;;;;20.40;99.90;;;;;;7321223;19;9506;-84
2023/08/17 13:13:52;;;;;;;;;;;20.40;99.90;;;;;;7325263;19;8944;-83
2023/08/17 13:16:22;;;;;;;;;;;20.30;99.90;;;;;;7325186;19;9300;-84
2023/08/17 13:18:51;;;;;;;;;;;20.30;99.90;;;;;;7325104;19;9203;-84
2023/08/17 13:21:20;;;;;;;;;;;20.30;99.90;;;;;;7324941;19;9453;-84
2023/08/17 13:23:49;;;;;;;;;;;20.20;99.90;;;;;;7325115;19;9292;-84
2023/08/17 13:26:18;;;;;;;;;;;20.20;99.90;;;;;;7325088;19;9178;-84
2023/08/17 13:28:47;;;;;;;;;;;20.10;99.90;;;;;;7324833;19;10153;-84
2023/08/17 13:31:19;;;;;;;;;;;20.10;99.90;;;;;;7323023;19;9131;-84
2023/08/17 13:33:47;;;;;;;;;;;20.10;99.90;;;;;;7324728;19;9312;-83
2023/08/17 13:36:17;;;;;;;;;;;20.10;99.90;;;;;;7324412;19;9485;-84
2023/08/17 13:38:46;;;;;;;;;;;20.20;99.90;;;;;;7324309;19;9216;-84
2023/08/17 13:41:15;;;;;;;;;;;20.20;99.90;;;;;;7322706;19;9246;-84
2023/08/17 13:43:44;;;;;;;;;;;20.20;99.90;;;;;;7322822;19;9205;-84
2023/08/17 13:46:14;;;;;;;;;;;20.30;99.90;;;;;;7324369;19;9328;-83
2023/08/17 13:48:46;;;;;;;;;;;20.30;99.90;;;;;;7325072;19;9277;-84
2023/08/17 13:51:15;;;;;;;;;;;20.30;99.90;;;;;;7323384;19;9226;-85
2023/08/17 13:53:44;;;;;;;;;;;20.20;99.90;;;;;;7324237;19;9582;-84
2023/08/17 13:56:14;;;;;;;;;;;20.30;99.90;;;;;;7323689;19;9471;-84
2023/08/17 13:58:43;;;;;;;;;;;20.30;99.90;;;;;;7325628;19;10251;-84
2023/08/17 14:01:12;;;;;;;;;;;20.30;99.90;;;;;;7323605;19;9469;-83
2023/08/17 14:03:42;;;;;;;;;;;20.30;99.90;;;;;;7323894;19;10233;-84
2023/08/17 14:06:13;;;;;;;;;;;20.30;99.90;;;;;;7323567;19;10557;-84
2023/08/17 14:08:42;;;;;;;;;;;20.30;99.90;;;;;;7323356;19;9238;-84
2023/08/17 14:11:11;;;;;;;;;;;20.30;99.90;;;;;;7322508;19;9222;-83
2023/08/17 14:13:40;;;;;;;;;;;20.30;99.90;;;;;;7323883;19;9250;-84
2023/08/17 14:16:10;;;;;;;;;;;20.40;99.90;;;;;;7323832;19;10372;-83
2023/08/17 14:18:39;;;;;;;;;;;20.40;99.90;;;;;;7323784;19;9399;-84
2023/08/17 14:21:07;;;;;;;;;;;20.30;99.90;;;;;;7323533;19;9185;-84
2023/08/17 14:23:40;;;;;;;;;;;20.40;99.90;;;;;;7322893;19;10667;-84
2023/08/17 14:26:09;;;;;;;;;;;20.50;99.90;;;;;;7321183;19;9258;-84
2023/08/17 14:28:38;;;;;;;;;;;20.50;99.90;;;;;;7322854;19;9793;-84
2023/08/17 14:31:07;;;;;;;;;;;20.50;99.90;;;;;;7321961;19;9393;-83
2023/08/17 14:33:36;;;;;;;;;;;20.40;99.90;;;;;;7322858;19;9197;-84
2023/08/17 14:36:06;;;;;;;;;;;20.30;99.90;;;;;;7323296;19;9519;-84
2023/08/17 14:38:40;;;;;;;;;;;20.30;99.90;;;;;;7323091;19;10600;-84
2023/08/17 14:41:09;;;;;;;;;;;20.20;99.90;;;;;;7321550;19;9473;-84
2023/08/17 14:43:38;;;;;;;;;;;20.20;99.90;;;;;;7321469;19;9321;-84
2023/08/17 14:46:07;;;;;;;;;;;20.20;99.90;;;;;;7322452;19;9230;-84